Time;durP1;ratioP1;P1;durP2;ratioP2;P2;SDS_P1;SDS_P2;PMS_P1;PMS_P2;Temp;Humidity;BMP_temperature;BMP_pressure;BME280_temperature;BME280_humidity;BME280_pressure;Samples;Min_cycle;Max_cycle;Signal;HPM_P1;HPM_P2
2021/11/30 00:00:20;;;;;;;30.88;8.38;;;;;;;12.74;83.72;98105.17;1874021;76;22149;-64
2021/11/30 00:02:52;;;;;;;28.17;7.00;;;;;;;12.69;84.04;98093.54;1874037;76;22117;-64
2021/11/30 00:06:03;;;;;;;27.95;7.25;;;;;;;12.65;84.19;98131.77;1872405;75;22651;-64
2021/11/30 00:08:36;;;;;;;21.80;6.47;;;;;;;12.65;84.37;98145.09;1874027;76;22557;-65
2021/11/30 00:11:11;;;;;;;23.52;7.50;;;;;;;12.63;84.54;98140.50;1871303;76;22093;-65
2021/11/30 00:13:43;;;;;;;21.35;6.97;;;;;;;12.61;84.84;98141.73;1873939;76;22129;-67
2021/11/30 00:16:34;;;;;;;21.37;6.30;;;;;;;12.57;85.27;98133.37;1873884;76;22097;-65
2021/11/30 00:19:06;;;;;;;28.50;6.83;;;;;;;12.52;85.82;98146.53;1874024;76;22140;-64
2021/11/30 00:21:39;;;;;;;24.05;6.97;;;;;;;12.45;86.15;98147.06;1874025;76;22549;-64
2021/11/30 00:24:30;;;;;;;22.93;7.00;;;;;;;12.38;86.79;98157.76;1892908;76;22601;-64
2021/11/30 00:27:03;;;;;;;16.80;6.37;;;;;;;12.32;87.08;98165.24;1874028;76;22125;-64
2021/11/30 00:29:54;;;;;;;22.70;7.97;;;;;;;12.28;87.54;98176.85;1874115;76;22129;-64
2021/11/30 00:32:27;;;;;;;20.97;6.50;;;;;;;12.25;87.64;98181.78;1873927;76;22117;-64
2021/11/30 00:34:59;;;;;;;21.48;6.15;;;;;;;12.23;87.85;98169.17;1874039;76;22583;-64
2021/11/30 00:37:50;;;;;;;17.80;6.45;;;;;;;12.23;87.94;98161.19;1873989;76;22144;-65
2021/11/30 00:40:22;;;;;;;20.00;6.28;;;;;;;12.19;87.95;98150.17;1874031;76;22105;-64
2021/11/30 00:42:57;;;;;;;20.40;6.67;;;;;;;12.16;87.98;98149.25;1874022;76;22540;-64
2021/11/30 00:48:23;;;;;;;22.93;6.87;;;;;;;12.12;88.07;98133.39;1874041;76;22128;-65
2021/11/30 00:50:55;;;;;;;23.00;6.65;;;;;;;12.11;88.00;98135.76;1874035;76;22120;-65
2021/11/30 00:53:27;;;;;;;19.57;6.30;;;;;;;12.10;87.85;98128.81;1892828;76;22553;-65
2021/11/30 00:55:59;;;;;;;22.25;7.05;;;;;;;12.09;87.68;98144.48;1874022;76;22542;-64
2021/11/30 00:58:51;;;;;;;18.85;5.80;;;;;;;12.10;87.38;98135.47;1873986;76;22097;-66
2021/11/30 01:01:23;;;;;;;24.95;7.28;;;;;;;12.11;87.03;98128.30;1874131;76;22552;-64
2021/11/30 01:03:55;;;;;;;19.48;6.40;;;;;;;12.10;87.00;98144.78;1874042;76;22125;-64
2021/11/30 01:06:30;;;;;;;24.23;7.17;;;;;;;12.08;86.96;98152.66;1892939;76;22533;-64
2021/11/30 01:09:04;;;;;;;23.57;6.70;;;;;;;12.06;87.01;98158.20;1874034;76;22133;-65
2021/11/30 01:11:56;;;;;;;22.95;6.35;;;;;;;12.05;87.05;98160.56;1874005;76;22129;-64
2021/11/30 01:14:28;;;;;;;32.80;18.10;;;;;;;12.08;86.99;98159.31;1892942;76;22137;-64
2021/11/30 01:17:00;;;;;;;22.52;8.65;;;;;;;12.07;86.91;98167.81;1892828;76;22149;-67
2021/11/30 01:19:32;;;;;;;22.87;7.35;;;;;;;12.07;86.97;98167.81;1874023;76;22120;-64
2021/11/30 01:22:24;;;;;;;26.68;7.42;;;;;;;12.05;86.85;98169.88;1892778;76;22586;-65
2021/11/30 01:24:56;;;;;;;16.85;7.62;;;;;;;12.02;86.89;98175.61;1874023;76;22113;-67
2021/11/30 01:27:28;;;;;;;23.20;7.12;;;;;;;12.02;86.83;98171.63;1874030;76;22101;-67
2021/11/30 01:30:20;;;;;;;18.85;6.05;;;;;;;12.00;86.71;98172.36;1873992;76;22129;-64
2021/11/30 01:32:52;;;;;;;16.95;5.92;;;;;;;11.99;86.83;98185.33;1874028;76;22093;-65
2021/11/30 01:35:44;;;;;;;22.52;7.65;;;;;;;11.98;86.77;98183.70;1890307;76;22157;-64
2021/11/30 01:38:17;;;;;;;18.07;5.78;;;;;;;11.97;86.64;98175.42;1874151;76;22093;-64
2021/11/30 01:40:49;;;;;;;16.75;5.03;;;;;;;12.00;86.53;98175.02;1874140;76;22116;-64
2021/11/30 01:43:43;;;;;;;19.48;6.22;;;;;;;12.03;86.36;98177.23;1892789;76;22115;-63
2021/11/30 01:46:28;;;;;;;19.45;6.12;;;;;;;12.03;86.13;98171.91;1892706;76;22104;-67
2021/11/30 01:49:21;;;;;;;20.62;7.05;;;;;;;12.00;86.04;98181.67;1874014;76;22128;-65
2021/11/30 01:51:46;;;;;;;20.27;6.17;;;;;;;11.99;86.18;98191.47;1858103;76;48946;-64
2021/11/30 01:54:19;;;;;;;14.25;5.78;;;;;;;12.07;85.98;98188.28;1874029;76;22186;-64
2021/11/30 01:56:51;;;;;;;21.15;7.42;;;;;;;12.12;85.74;98192.47;1873904;76;22170;-64
2021/11/30 01:59:43;;;;;;;17.62;6.92;;;;;;;12.09;85.82;98199.53;1892810;76;22096;-64
2021/11/30 02:02:15;;;;;;;23.57;6.62;;;;;;;12.07;86.01;98202.92;1873941;76;22138;-64
2021/11/30 02:05:08;;;;;;;19.85;6.40;;;;;;;12.07;86.46;98193.09;1874004;76;22141;-64
2021/11/30 02:07:40;;;;;;;18.82;7.17;;;;;;;12.01;87.04;98216.56;1873931;76;22142;-64
2021/11/30 02:10:13;;;;;;;19.15;7.22;;;;;;;11.95;87.44;98218.70;1874025;76;22572;-64
2021/11/30 02:12:47;;;;;;;18.45;6.83;;;;;;;11.93;87.89;98207.46;1874033;76;22121;-64
2021/11/30 02:15:21;;;;;;;13.75;5.37;;;;;;;11.89;87.24;98198.26;1874153;76;22120;-64
2021/11/30 02:18:13;;;;;;;15.55;6.03;;;;;;;11.83;86.94;98193.78;1874000;76;22136;-64
2021/11/30 02:20:46;;;;;;;20.25;6.58;;;;;;;11.77;87.34;98187.42;1892830;76;22149;-64
2021/11/30 02:23:35;;;;;;;16.75;7.03;;;;;;;11.71;88.03;98196.20;1871309;76;22570;-64
2021/11/30 02:26:10;;;;;;;17.95;6.87;;;;;;;11.65;88.24;98186.41;1858106;76;27848;-64
2021/11/30 02:29:02;;;;;;;14.98;6.53;;;;;;;11.77;87.98;98163.48;1874115;76;22104;-64
2021/11/30 02:31:41;;;;;;;16.07;6.62;;;;;;;11.78;87.53;98175.75;1874037;76;22545;-64
2021/11/30 02:34:32;;;;;;;16.30;7.35;;;;;;;11.77;87.54;98185.58;1873917;76;22142;-64
2021/11/30 02:37:26;;;;;;;18.55;6.87;;;;;;;11.75;87.57;98194.77;1892799;76;22154;-64
2021/11/30 02:39:57;;;;;;;16.50;7.20;;;;;;;11.72;87.59;98203.19;1892829;76;22092;-64
2021/11/30 02:43:08;;;;;;;19.40;8.60;;;;;;;11.69;87.49;98207.06;1869030;75;22185;-65
2021/11/30 02:45:40;;;;;;;18.70;7.85;;;;;;;11.65;87.16;98216.48;1874029;76;22177;-64
2021/11/30 02:48:31;;;;;;;18.45;7.15;;;;;;;11.61;87.14;98212.59;1873982;76;22546;-63
2021/11/30 02:51:07;;;;;;;15.53;7.53;;;;;;;11.59;87.14;98210.66;1892716;76;22124;-64
2021/11/30 02:53:43;;;;;;;19.25;7.83;;;;;;;11.58;87.15;98201.06;1873083;76;22117;-63
2021/11/30 02:56:44;;;;;;;21.37;11.18;;;;;;;11.60;87.11;98195.52;1874001;76;22101;-64
2021/11/30 02:59:17;;;;;;;24.12;14.28;;;;;;;11.61;86.97;98199.81;1874003;76;22158;-64
2021/11/30 03:01:56;;;;;;;26.25;20.15;;;;;;;11.63;86.88;98205.76;1874023;76;22105;-63
2021/11/30 03:04:28;;;;;;;23.62;12.45;;;;;;;11.63;86.74;98211.89;1892812;76;22541;-63
2021/11/30 03:07:00;;;;;;;16.32;7.80;;;;;;;11.64;86.58;98222.02;1892809;76;22116;-63
2021/11/30 03:09:33;;;;;;;16.27;8.85;;;;;;;11.63;86.61;98221.20;1874010;76;22125;-64
2021/11/30 03:12:07;;;;;;;16.67;7.80;;;;;;;11.62;86.50;98229.36;1874033;76;22101;-64
2021/11/30 03:14:58;;;;;;;20.05;9.53;;;;;;;11.60;86.30;98238.07;1873997;76;22121;-63
2021/11/30 03:17:30;;;;;;;19.82;9.50;;;;;;;11.54;85.60;98246.88;1873914;76;22129;-63
2021/11/30 03:20:04;;;;;;;17.82;8.93;;;;;;;11.47;85.36;98249.52;1892802;76;22096;-63
2021/11/30 03:22:38;;;;;;;18.82;9.73;;;;;;;11.45;85.29;98261.70;1874020;76;22132;-63
2021/11/30 03:25:30;;;;;;;22.82;11.08;;;;;;;11.43;85.19;98275.72;1892792;76;22564;-63
2021/11/30 03:28:09;;;;;;;21.65;10.70;;;;;;;11.35;84.45;98273.25;1873201;76;22120;-63
2021/11/30 03:31:06;;;;;;;19.95;11.10;;;;;;;11.29;84.25;98279.87;1874028;76;22121;-63
2021/11/30 03:36:25;;;;;;;26.15;12.03;;;;;;;11.19;83.49;98300.20;1874028;76;22120;-63
2021/11/30 03:38:58;;;;;;;22.35;12.00;;;;;;;11.15;83.19;98302.95;1892709;76;22120;-63
2021/11/30 03:41:50;;;;;;;21.87;11.75;;;;;;;11.09;83.15;98315.20;1874101;76;22128;-64
2021/11/30 03:44:23;;;;;;;24.40;13.60;;;;;;;11.05;82.88;98313.14;1873926;76;22128;-65
2021/11/30 03:46:55;;;;;;;23.47;13.95;;;;;;;11.02;82.82;98329.51;1892814;76;22132;-64
2021/11/30 03:49:28;;;;;;;21.40;12.65;;;;;;;10.98;82.47;98333.06;1874016;76;22897;-63
2021/11/30 03:52:19;;;;;;;27.75;14.98;;;;;;;10.91;82.16;98342.83;1873991;76;22096;-63
2021/11/30 03:54:51;;;;;;;22.05;13.13;;;;;;;10.86;82.15;98342.61;1874026;76;22137;-63
2021/11/30 03:57:42;;;;;;;21.50;12.85;;;;;;;10.83;82.42;98347.02;1892793;76;22207;-66
2021/11/30 04:00:16;;;;;;;24.47;13.83;;;;;;;10.80;82.23;98342.08;1874037;76;22113;-64
2021/11/30 04:02:48;;;;;;;23.30;13.60;;;;;;;10.74;82.11;98344.52;1892821;76;22100;-65
2021/11/30 04:05:39;;;;;;;22.98;12.75;;;;;;;10.67;81.93;98352.94;1892800;76;22104;-65
2021/11/30 04:08:12;;;;;;;24.60;13.10;;;;;;;10.59;82.10;98361.09;1874029;76;22125;-63
2021/11/30 04:10:44;;;;;;;22.98;12.28;;;;;;;10.52;82.31;98370.84;1892830;76;22092;-63
2021/11/30 04:13:16;;;;;;;22.13;12.43;;;;;;;10.46;80.95;98374.28;1874030;76;22542;-63
2021/11/30 04:15:48;;;;;;;21.35;12.00;;;;;;;10.39;79.88;98376.06;1892831;76;22104;-63
2021/11/30 04:18:21;;;;;;;23.10;11.57;;;;;;;10.27;79.45;98374.98;1873916;76;22129;-64
2021/11/30 04:20:53;;;;;;;23.35;11.83;;;;;;;10.14;78.86;98382.30;1874146;76;22129;-63
2021/11/30 04:23:26;;;;;;;22.02;11.93;;;;;;;10.03;78.42;98386.81;1874020;76;22522;-63
2021/11/30 04:25:58;;;;;;;22.02;11.80;;;;;;;9.92;78.55;98382.31;1874011;76;22562;-65
2021/11/30 04:28:50;;;;;;;21.33;11.28;;;;;;;9.80;78.12;98383.05;1873989;76;22096;-63
2021/11/30 04:31:22;;;;;;;20.45;10.70;;;;;;;9.69;78.14;98390.50;1892721;76;22583;-63
2021/11/30 04:34:16;;;;;;;20.32;10.85;;;;;;;9.60;77.95;98389.49;1873982;76;22105;-63
2021/11/30 04:36:47;;;;;;;21.52;11.60;;;;;;;9.53;78.25;98401.34;1873928;76;22116;-63
2021/11/30 04:39:38;;;;;;;21.82;10.93;;;;;;;9.47;78.32;98408.73;1873990;76;22558;-63
2021/11/30 04:42:10;;;;;;;20.35;11.12;;;;;;;9.41;78.36;98420.05;1892814;76;22557;-63
2021/11/30 04:45:07;;;;;;;22.10;10.68;;;;;;;9.36;78.63;98429.07;1873980;76;22125;-63
2021/11/30 04:47:41;;;;;;;19.02;10.43;;;;;;;9.35;78.80;98438.03;1892814;76;22093;-63
2021/11/30 04:53:07;;;;;;;21.90;12.13;;;;;;;9.28;79.06;98449.08;1873997;76;22128;-64
2021/11/30 04:55:39;;;;;;;20.95;11.10;;;;;;;9.27;79.33;98452.70;1874148;76;22150;-63
2021/11/30 04:58:30;;;;;;;20.92;11.30;;;;;;;9.26;79.44;98452.40;1873979;76;22104;-63
2021/11/30 05:01:02;;;;;;;20.15;11.05;;;;;;;9.25;79.56;98453.41;1874019;76;22573;-66
2021/11/30 05:03:54;;;;;;;20.45;11.15;;;;;;;9.26;79.52;98463.00;1892798;76;22127;-66
2021/11/30 05:06:26;;;;;;;22.73;13.15;;;;;;;9.23;79.62;98471.33;1874007;76;22581;-64
2021/11/30 05:09:02;;;;;;;24.90;14.40;;;;;;;9.21;79.65;98470.99;1874005;76;22109;-66
2021/11/30 05:11:52;;;;;;;21.77;12.85;;;;;;;9.23;79.69;98473.98;1873882;76;22105;-63
2021/11/30 05:14:24;;;;;;;20.92;11.53;;;;;;;9.21;79.66;98476.80;1892763;76;22132;-49
2021/11/30 05:16:56;;;;;;;20.82;11.48;;;;;;;9.21;80.02;98481.59;1873922;76;22097;-49
2021/11/30 05:19:28;;;;;;;25.65;11.65;;;;;;;9.42;81.36;98484.00;1873940;76;22164;-50
2021/11/30 05:22:00;;;;;;;24.67;15.53;;;;;;;9.57;80.07;98482.13;1874007;76;22133;-50
2021/11/30 05:24:52;;;;;;;32.38;22.80;;;;;;;9.56;78.09;98488.45;1873865;76;22141;-49
2021/11/30 05:27:24;;;;;;;25.55;16.67;;;;;;;9.48;78.29;98503.12;1892721;76;22136;-76
2021/11/30 05:30:18;;;;;;;21.07;12.60;;;;;;;9.41;77.38;98508.36;1871166;76;22105;-72
2021/11/30 05:32:49;;;;;;;20.80;11.60;;;;;;;9.31;77.29;98514.42;1873973;76;22133;-69
2021/11/30 05:35:21;;;;;;;17.98;9.85;;;;;;;9.19;76.84;98526.00;1892785;76;22565;-71
2021/11/30 05:37:53;;;;;;;18.50;10.13;;;;;;;9.07;76.77;98535.91;1892879;76;22104;-70
2021/11/30 05:40:26;;;;;;;16.32;8.60;;;;;;;8.94;76.48;98547.15;1873966;76;22153;-72
2021/11/30 05:43:17;;;;;;;14.65;8.33;;;;;;;8.82;75.61;98557.34;1873802;76;22097;-71
2021/11/30 05:45:50;;;;;;;11.48;6.53;;;;;;;8.70;75.80;98560.94;1892389;76;22164;-71
2021/11/30 05:48:22;;;;;;;16.05;7.97;;;;;;;8.60;74.45;98567.47;1890273;76;22597;-72
2021/11/30 05:50:54;;;;;;;19.35;9.55;;;;;;;8.46;74.02;98586.27;1873538;76;22200;-71
2021/11/30 05:53:46;;;;;;;12.28;6.10;;;;;;;8.30;73.13;98589.01;1873630;76;22286;-69
2021/11/30 05:56:18;;;;;;;12.78;6.00;;;;;;;8.16;73.12;98595.88;1873739;76;22137;-68
2021/11/30 05:58:50;;;;;;;13.03;5.80;;;;;;;8.08;73.06;98613.92;1873511;76;22216;-69
2021/11/30 06:01:26;;;;;;;10.82;6.08;;;;;;;7.98;73.11;98615.97;1891871;76;22164;-69
2021/11/30 06:04:16;;;;;;;18.75;10.18;;;;;;;7.91;73.25;98622.45;1891946;76;22203;-74
2021/11/30 06:06:48;;;;;;;11.38;6.40;;;;;;;7.85;72.77;98627.59;1873292;76;22172;-71
2021/11/30 06:09:20;;;;;;;37.83;7.20;;;;;;;7.79;72.87;98630.44;1870426;76;22189;-77
2021/11/30 06:11:53;;;;;;;16.40;6.17;;;;;;;7.79;73.19;98633.08;1872576;76;22133;-70
2021/11/30 06:14:25;;;;;;;10.72;4.97;;;;;;;7.85;73.61;98630.23;1872790;76;22200;-66
2021/11/30 06:16:58;;;;;;;10.72;5.42;;;;;;;7.90;73.50;98628.75;1873266;76;22193;-71
2021/11/30 06:19:51;;;;;;;9.43;5.45;;;;;;;7.94;73.69;98633.99;1872976;76;22185;-69
2021/11/30 06:22:24;;;;;;;15.48;8.30;;;;;;;7.99;73.20;98641.91;1892038;76;22156;-74
2021/11/30 06:24:56;;;;;;;16.57;8.45;;;;;;;8.03;72.88;98649.33;1891983;76;22161;-75
2021/11/30 06:27:28;;;;;;;11.43;6.00;;;;;;;8.07;72.81;98644.02;1891987;76;22156;-68
2021/11/30 06:30:20;;;;;;;13.53;6.28;;;;;;;8.14;72.81;98642.34;1869631;76;22205;-68
2021/11/30 06:32:52;;;;;;;10.55;5.58;;;;;;;8.19;72.69;98655.88;1865851;76;22167;-66
2021/11/30 06:35:24;;;;;;;9.70;5.33;;;;;;;8.23;71.79;98658.15;1873085;76;22551;-64
2021/11/30 06:38:16;;;;;;;11.48;5.58;;;;;;;8.20;71.95;98673.39;1873015;76;22169;-66
2021/11/30 06:40:48;;;;;;;18.15;5.62;;;;;;;8.19;72.08;98677.03;1873052;76;22642;-65
2021/11/30 06:43:20;;;;;;;12.37;6.53;;;;;;;8.11;70.85;98690.79;1889149;76;22128;-66
2021/11/30 06:46:12;;;;;;;17.05;10.40;;;;;;;7.90;69.04;98694.00;1863873;75;22181;-67
2021/11/30 06:48:45;;;;;;;15.20;8.05;;;;;;;7.69;67.84;98694.07;1873127;76;22181;-64
2021/11/30 06:51:17;;;;;;;15.18;8.08;;;;;;;7.54;68.53;98709.48;1892075;76;22191;-63
2021/11/30 06:53:49;;;;;;;16.17;7.62;;;;;;;7.45;68.05;98706.52;1873399;76;22173;-66
2021/11/30 06:56:21;;;;;;;15.60;7.92;;;;;;;7.36;68.64;98711.81;1873630;76;22622;-64
2021/11/30 06:58:54;;;;;;;15.03;8.05;;;;;;;7.30;67.97;98723.05;1873276;76;22176;-65
2021/11/30 07:01:28;;;;;;;14.60;8.08;;;;;;;7.25;68.30;98725.37;1873163;76;22133;-66
2021/11/30 07:04:02;;;;;;;18.10;9.38;;;;;;;7.25;68.61;98726.69;1873277;76;22160;-68
2021/11/30 07:06:43;;;;;;;14.63;7.80;;;;;;;7.23;67.69;98729.16;1870415;76;22160;-65
2021/11/30 07:15:12;;;;;;;17.25;8.70;;;;;;;7.09;68.14;98745.98;1876988;76;22649;-65
2021/11/30 07:18:06;;;;;;;14.53;7.05;;;;;;;7.12;68.64;98729.82;1866465;76;22156;-66
2021/11/30 07:20:41;;;;;;;12.18;6.70;;;;;;;7.17;68.46;98731.47;1879891;76;22189;-65
2021/11/30 07:23:18;;;;;;;14.43;8.05;;;;;;;7.22;68.05;98738.08;1852452;76;28424;-67
2021/11/30 07:25:53;;;;;;;10.88;6.45;;;;;;;7.35;68.55;98745.01;1847089;76;22230;-66
2021/11/30 07:28:50;;;;;;;11.78;6.80;;;;;;;7.42;65.87;98741.52;1880012;76;22922;-65
2021/11/30 07:31:30;;;;;;;12.63;7.20;;;;;;;7.45;66.65;98728.48;1839421;76;27916;-66
2021/11/30 07:34:02;;;;;;;12.13;6.97;;;;;;;7.57;65.96;98724.48;1870391;76;22208;-64
2021/11/30 07:36:58;;;;;;;14.50;7.62;;;;;;;7.63;65.36;98735.72;1892158;76;22148;-65
2021/11/30 07:39:34;;;;;;;21.35;7.83;;;;;;;7.63;66.00;98733.08;1847862;76;22202;-65
2021/11/30 07:42:07;;;;;;;13.20;7.20;;;;;;;7.66;66.20;98744.62;1873269;76;22157;-65
2021/11/30 07:44:39;;;;;;;14.25;7.50;;;;;;;7.65;66.16;98746.12;1873017;76;22653;-66
2021/11/30 07:47:11;;;;;;;16.17;7.47;;;;;;;7.62;65.93;98745.97;1873462;76;22129;-67
2021/11/30 07:49:45;;;;;;;13.25;7.15;;;;;;;7.61;65.50;98748.77;1891824;76;22136;-64
2021/11/30 07:52:18;;;;;;;12.63;6.87;;;;;;;7.59;65.67;98744.16;1873358;76;22161;-67
2021/11/30 07:54:51;;;;;;;12.70;7.05;;;;;;;7.53;65.41;98752.26;1873355;76;22562;-66
2021/11/30 07:57:43;;;;;;;12.73;6.90;;;;;;;7.46;65.80;98764.97;1870368;76;22219;-67
2021/11/30 08:00:17;;;;;;;12.50;6.90;;;;;;;7.50;65.83;98779.00;1873503;76;23302;-68
2021/11/30 08:03:08;;;;;;;14.70;7.58;;;;;;;7.44;65.53;98781.00;1873296;76;22204;-65
2021/11/30 08:05:41;;;;;;;12.95;7.17;;;;;;;7.45;65.80;98780.50;1892130;76;22156;-67
2021/11/30 08:08:14;;;;;;;11.97;6.85;;;;;;;7.47;64.28;98784.61;1891784;76;22168;-67
2021/11/30 08:10:46;;;;;;;16.48;8.38;;;;;;;7.43;64.51;98807.92;1892092;76;22136;-67
2021/11/30 08:13:18;;;;;;;13.68;7.60;;;;;;;7.38;64.35;98812.02;1870748;76;22161;-73
2021/11/30 08:15:51;;;;;;;15.38;7.75;;;;;;;7.33;64.62;98795.84;1873380;76;22161;-72
2021/11/30 08:18:23;;;;;;;14.68;7.62;;;;;;;7.34;65.59;98794.84;1873472;76;22121;-71
2021/11/30 08:20:58;;;;;;;15.15;8.13;;;;;;;7.37;65.26;98813.84;1892094;76;22151;-76
2021/11/30 08:23:31;;;;;;;16.77;9.55;;;;;;;7.41;64.68;98805.09;1857658;76;38220;-73
2021/11/30 08:26:22;;;;;;;22.77;11.12;;;;;;;7.54;64.00;98812.04;1892217;76;22132;-73
2021/11/30 08:28:54;;;;;;;23.83;11.20;;;;;;;7.46;62.36;98805.92;1892129;76;22140;-68
2021/11/30 08:31:46;;;;;;;15.28;8.10;;;;;;;7.23;64.01;98803.11;1876493;75;22673;-70
2021/11/30 08:34:32;;;;;;;16.77;9.23;;;;;;;7.17;63.52;98813.34;1857548;76;27899;-69
2021/11/30 08:37:06;;;;;;;17.82;9.18;;;;;;;7.17;63.25;98815.16;1873421;76;22141;-75
2021/11/30 08:39:58;;;;;;;14.90;8.88;;;;;;;7.08;62.92;98816.12;1873234;76;22140;-72
2021/11/30 08:42:31;;;;;;;16.77;8.68;;;;;;;6.94;63.61;98820.72;1873586;76;22208;-71
2021/11/30 08:45:22;;;;;;;18.77;10.05;;;;;;;6.82;64.77;98822.82;1873355;76;22145;-71
2021/11/30 08:47:55;;;;;;;16.75;9.08;;;;;;;6.80;65.22;98828.77;1873397;76;22168;-66
2021/11/30 08:50:27;;;;;;;17.25;8.53;;;;;;;6.84;65.41;98824.83;1873362;76;22166;-69
2021/11/30 08:52:59;;;;;;;17.75;7.78;;;;;;;6.87;65.00;98825.34;1892240;76;22193;-75
2021/11/30 08:55:52;;;;;;;13.78;7.37;;;;;;;6.93;65.13;98819.91;1870534;76;22626;-72
2021/11/30 08:58:24;;;;;;;15.70;7.42;;;;;;;7.00;64.77;98828.81;1873470;76;22133;-74
2021/11/30 09:00:56;;;;;;;15.00;7.53;;;;;;;7.07;63.94;98838.25;1873566;76;22121;-75
2021/11/30 09:03:28;;;;;;;15.60;7.92;;;;;;;7.12;64.09;98847.33;1872941;76;22225;-75
2021/11/30 09:06:01;;;;;;;15.18;7.42;;;;;;;7.22;64.15;98846.36;1892115;76;22167;-76
2021/11/30 09:08:33;;;;;;;16.35;8.98;;;;;;;7.28;63.06;98852.30;1873407;76;22175;-76
2021/11/30 09:11:25;;;;;;;15.83;8.55;;;;;;;7.28;60.78;98839.09;1880177;75;22213;-69
2021/11/30 09:13:57;;;;;;;16.23;7.72;;;;;;;7.17;61.17;98833.14;1872784;76;22137;-72
2021/11/30 09:16:54;;;;;;;14.58;7.58;;;;;;;7.09;61.09;98841.54;1873233;76;22148;-68
2021/11/30 09:19:26;;;;;;;13.58;7.67;;;;;;;7.01;61.21;98837.09;1891837;76;22195;-68
2021/11/30 09:21:58;;;;;;;14.93;7.40;;;;;;;6.95;61.13;98850.91;1873194;76;22161;-73
2021/11/30 09:24:31;;;;;;;14.28;6.97;;;;;;;6.85;60.53;98848.91;1866695;76;22203;-74
2021/11/30 09:27:04;;;;;;;15.45;7.10;;;;;;;6.69;60.20;98860.25;1872921;76;22188;-75
2021/11/30 09:29:36;;;;;;;17.75;8.55;;;;;;;6.54;60.25;98877.17;1872457;76;22208;-71
2021/11/30 09:32:11;;;;;;;14.87;7.75;;;;;;;6.38;60.10;98876.58;1889210;76;22148;-70
2021/11/30 09:34:43;;;;;;;14.80;7.83;;;;;;;6.24;60.80;98878.48;1872809;76;22173;-71
2021/11/30 09:37:38;;;;;;;12.50;8.10;;;;;;;6.21;61.80;98878.81;1873007;76;22161;-76
2021/11/30 09:40:12;;;;;;;16.93;8.45;;;;;;;6.25;62.21;98889.85;1870344;76;22180;-73
2021/11/30 09:42:47;;;;;;;17.60;10.20;;;;;;;6.28;62.71;98889.55;1833777;76;28008;-71
2021/11/30 09:45:21;;;;;;;16.32;9.80;;;;;;;6.36;62.00;98901.47;1891748;76;22224;-67
2021/11/30 09:47:53;;;;;;;13.70;7.83;;;;;;;6.36;60.83;98912.02;1891992;76;22148;-73
2021/11/30 09:50:25;;;;;;;13.45;7.08;;;;;;;6.28;61.26;98921.20;1892037;76;22163;-72
2021/11/30 09:52:58;;;;;;;16.80;8.53;;;;;;;6.23;60.78;98911.11;1873206;76;22199;-74
2021/11/30 09:55:49;;;;;;;14.70;7.40;;;;;;;6.11;60.98;98918.92;1869812;76;22176;-72
2021/11/30 09:58:23;;;;;;;16.55;8.83;;;;;;;6.05;61.55;98925.64;1875989;76;22732;-73
2021/11/30 10:00:58;;;;;;;13.60;8.45;;;;;;;6.06;61.92;98930.42;1873293;76;22208;-68
2021/11/30 10:03:49;;;;;;;14.03;7.17;;;;;;;6.09;63.04;98929.64;1873484;76;22598;-68
2021/11/30 10:06:22;;;;;;;14.00;7.58;;;;;;;6.17;62.87;98921.46;1873269;76;22602;-70
2021/11/30 10:08:56;;;;;;;13.48;7.08;;;;;;;6.20;62.48;98927.73;1873473;76;22655;-71
2021/11/30 10:11:34;;;;;;;12.75;6.87;;;;;;;6.20;62.24;98917.18;1873814;76;22192;-69
2021/11/30 10:14:26;;;;;;;16.37;8.55;;;;;;;6.17;62.21;98915.70;1873593;76;22159;-70
2021/11/30 10:17:26;;;;;;;14.47;7.45;;;;;;;6.15;62.75;98896.55;1866590;76;22212;-69
2021/11/30 10:20:13;;;;;;;14.47;7.17;;;;;;;6.12;62.80;98912.20;1873486;76;22192;-74
2021/11/30 10:23:05;;;;;;;16.95;6.80;;;;;;;6.13;63.20;98910.39;1892301;76;22196;-71
2021/11/30 10:25:40;;;;;;;13.05;6.90;;;;;;;6.18;63.67;98904.66;1892387;76;22151;-76
2021/11/30 10:28:16;;;;;;;15.38;8.70;;;;;;;6.28;63.39;98896.97;1876285;76;28946;-71
2021/11/30 10:30:50;;;;;;;12.28;7.10;;;;;;;6.45;63.16;98891.30;1876446;76;28330;-73
2021/11/30 10:33:48;;;;;;;16.57;7.05;;;;;;;6.64;62.19;98887.11;1890056;76;22160;-70
2021/11/30 10:36:19;;;;;;;13.80;6.50;;;;;;;6.63;61.24;98897.34;1892608;76;22154;-72
2021/11/30 10:38:51;;;;;;;13.70;6.53;;;;;;;6.53;61.29;98892.64;1873881;76;22158;-72
2021/11/30 10:41:26;;;;;;;13.13;7.05;;;;;;;6.49;62.21;98889.16;1870938;76;22196;-73
2021/11/30 10:44:31;;;;;;;17.12;8.53;;;;;;;6.55;62.89;98888.05;1873690;76;22152;-75
2021/11/30 10:47:10;;;;;;;12.80;6.58;;;;;;;6.65;62.85;98882.16;1873633;76;22152;-78
2021/11/30 10:49:55;;;;;;;12.93;6.03;;;;;;;6.80;62.67;98885.52;1892424;76;22613;-72
2021/11/30 10:52:30;;;;;;;15.23;6.97;;;;;;;6.86;61.71;98878.27;1873636;76;22320;-71
2021/11/30 10:55:10;;;;;;;13.83;6.40;;;;;;;6.86;61.99;98875.13;1873604;76;22178;-74
2021/11/30 10:57:44;;;;;;;14.73;7.22;;;;;;;6.85;60.49;98884.05;1873486;76;22156;-69
2021/11/30 11:00:36;;;;;;;14.90;7.20;;;;;;;6.79;60.80;98891.79;1892219;76;22187;-75
2021/11/30 11:03:13;;;;;;;16.07;7.50;;;;;;;6.75;60.68;98887.81;1873144;76;22263;-69
2021/11/30 11:05:50;;;;;;;15.72;8.43;;;;;;;6.75;60.69;98877.25;1857272;76;28344;-67
2021/11/30 11:08:22;;;;;;;15.10;6.70;;;;;;;6.80;60.60;98871.00;1884420;76;22224;-75
2021/11/30 11:10:59;;;;;;;13.80;6.90;;;;;;;6.79;60.81;98868.03;1872900;76;22200;-76
2021/11/30 11:13:35;;;;;;;14.73;6.80;;;;;;;6.78;61.14;98863.25;1873054;76;22183;-68
2021/11/30 11:16:09;;;;;;;11.97;6.45;;;;;;;6.83;61.52;98862.77;1873099;76;22200;-65
2021/11/30 11:19:06;;;;;;;13.32;6.72;;;;;;;6.92;61.12;98859.17;1873490;75;22170;-74
2021/11/30 11:21:56;;;;;;;13.90;7.62;;;;;;;6.93;59.69;98851.58;1892042;76;22640;-77
2021/11/30 11:25:07;;;;;;;16.10;7.72;;;;;;;6.92;59.79;98838.05;1873049;75;22202;-75
2021/11/30 11:27:40;;;;;;;17.48;9.13;;;;;;;6.90;59.01;98842.66;1873089;76;22639;-76
2021/11/30 11:30:31;;;;;;;13.98;7.10;;;;;;;6.82;59.30;98832.91;1873194;76;22241;-78
2021/11/30 11:33:04;;;;;;;15.28;8.80;;;;;;;6.81;59.26;98833.05;1873399;76;22780;-75
2021/11/30 11:35:38;;;;;;;12.70;7.08;;;;;;;6.77;59.55;98833.03;1872882;76;22221;-74
2021/11/30 11:38:29;;;;;;;12.58;6.53;;;;;;;6.75;59.94;98833.70;1870548;76;22196;-73
2021/11/30 11:41:01;;;;;;;13.00;6.75;;;;;;;6.72;60.44;98831.38;1870138;76;22622;-69
2021/11/30 11:43:34;;;;;;;18.32;11.68;;;;;;;6.69;60.95;98827.75;1891985;76;22169;-71
2021/11/30 11:46:15;;;;;;;22.48;16.60;;;;;;;6.70;60.96;98826.77;1873076;76;22598;-72
2021/11/30 11:48:50;;;;;;;23.98;16.60;;;;;;;6.71;61.39;98820.00;1872981;76;22663;-69
2021/11/30 11:51:22;;;;;;;19.92;11.55;;;;;;;6.71;61.29;98821.31;1873152;76;22214;-65
2021/11/30 11:53:56;;;;;;;17.67;10.53;;;;;;;6.66;61.27;98818.33;1891809;76;22204;-69
2021/11/30 11:59:23;;;;;;;16.17;9.00;;;;;;;6.58;61.68;98807.24;1873203;76;22650;-71
2021/11/30 12:02:20;;;;;;;17.40;7.12;;;;;;;6.56;62.13;98797.85;1861748;76;22259;-69
2021/11/30 12:05:04;;;;;;;12.37;7.03;;;;;;;6.54;62.24;98798.48;1873194;76;22160;-66
2021/11/30 12:08:01;;;;;;;16.37;7.75;;;;;;;6.49;62.62;98802.92;1873011;76;22897;-67
2021/11/30 12:10:39;;;;;;;12.73;6.58;;;;;;;6.44;63.05;98811.81;1871810;76;22633;-71
2021/11/30 12:13:21;;;;;;;13.58;6.85;;;;;;;6.46;63.16;98813.81;1873026;76;22198;-68
2021/11/30 12:16:07;;;;;;;12.55;6.72;;;;;;;6.47;62.76;98813.31;1872900;76;22172;-68
2021/11/30 12:18:43;;;;;;;10.43;6.00;;;;;;;6.47;62.12;98813.31;1870333;76;22188;-72
2021/11/30 12:24:43;;;;;;;13.55;6.95;;;;;;;6.31;61.29;98802.22;1873022;76;22184;-69
2021/11/30 12:27:33;;;;;;;11.35;5.60;;;;;;;6.27;61.54;98796.42;1869834;76;22225;-73
2021/11/30 12:30:43;;;;;;;17.25;7.72;;;;;;;6.22;61.85;98786.02;1872516;76;22205;-75
2021/11/30 12:33:37;;;;;;;18.45;13.10;;;;;;;6.15;62.26;98782.67;1857507;76;27937;-80
2021/11/30 12:36:11;;;;;;;14.90;8.05;;;;;;;6.19;62.43;98787.15;1892106;76;22176;-74
2021/11/30 12:39:10;;;;;;;14.23;7.25;;;;;;;6.20;62.68;98796.70;1872984;76;22208;-75
2021/11/30 12:41:45;;;;;;;13.45;6.75;;;;;;;6.14;63.06;98796.84;1892064;76;22198;-71
2021/11/30 12:44:41;;;;;;;15.75;10.05;;;;;;;6.07;63.44;98800.25;1873273;76;22186;-75